createdAt,value
2022-08-22T00:02:24.691Z,26.30
2022-08-22T00:02:55.722Z,26.34
2022-08-22T00:04:56.077Z,26.31
2022-08-22T00:07:31.462Z,26.33
2022-08-22T00:10:24.929Z,26.32
2022-08-22T00:12:54.907Z,26.31
2022-08-22T00:15:42.956Z,26.31
2022-08-22T00:18:13.168Z,26.31
2022-08-22T00:20:45.176Z,26.30
2022-08-22T00:23:17.489Z,26.30
2022-08-22T00:25:43.819Z,26.30
2022-08-22T00:28:17.625Z,26.31
2022-08-22T00:30:51.699Z,26.30
2022-08-22T00:33:21.977Z,26.29
2022-08-22T00:35:51.345Z,26.30
2022-08-22T00:38:23.847Z,26.29
2022-08-22T00:40:53.571Z,26.29
2022-08-22T00:43:34.955Z,26.28
2022-08-22T00:46:20.269Z,26.28
2022-08-22T00:48:46.582Z,26.26
2022-08-22T00:51:19.099Z,26.26
2022-08-22T00:53:57.157Z,26.26
2022-08-22T00:56:42.488Z,26.28
2022-08-22T00:59:51.349Z,26.26
2022-08-22T01:02:32.694Z,26.26
2022-08-22T01:05:17.485Z,26.27
2022-08-22T01:07:43.817Z,26.25
2022-08-22T01:10:27.438Z,26.25
2022-08-22T01:13:05.843Z,26.24
2022-08-22T01:15:34.987Z,26.25
2022-08-22T01:18:17.091Z,26.23
2022-08-22T01:20:58.149Z,26.23
2022-08-22T01:23:53.935Z,26.23
2022-08-22T01:26:20.260Z,26.22
2022-08-22T01:28:46.776Z,26.22
2022-08-22T01:31:13.162Z,26.21
2022-08-22T01:33:49.190Z,26.23
2022-08-22T01:36:34.137Z,26.24
2022-08-22T01:39:02.451Z,26.23
2022-08-22T01:41:28.827Z,26.23
2022-08-22T01:44:07.579Z,26.23
2022-08-22T01:47:03.568Z,26.22
2022-08-22T01:49:37.502Z,26.22
2022-08-22T01:52:19.620Z,26.21
2022-08-22T01:54:55.428Z,26.20
2022-08-22T01:57:26.203Z,26.19
2022-08-22T01:59:54.146Z,26.20
2022-08-22T02:02:26.018Z,26.20
2022-08-22T02:05:01.324Z,26.19
2022-08-22T02:07:48.346Z,26.20
2022-08-22T02:10:21.118Z,26.19
2022-08-22T02:13:01.300Z,26.19
2022-08-22T02:15:44.028Z,26.17
2022-08-22T02:18:14.365Z,26.19
2022-08-22T02:20:40.731Z,26.19
2022-08-22T02:23:25.962Z,26.19
2022-08-22T02:26:01.454Z,26.17
2022-08-22T02:28:57.111Z,26.18
2022-08-22T02:31:33.543Z,26.17
2022-08-22T02:34:02.242Z,26.18
2022-08-22T02:36:32.210Z,26.18
2022-08-22T02:39:01.710Z,26.18
2022-08-22T02:41:28.153Z,26.18
2022-08-22T02:44:01.541Z,26.17
2022-08-22T02:46:46.943Z,26.17
2022-08-22T02:49:19.676Z,26.17
2022-08-22T02:51:57.542Z,26.18
2022-08-22T02:54:46.835Z,26.17
2022-08-22T02:57:24.739Z,26.15
2022-08-22T03:00:31.289Z,26.15
2022-08-22T03:03:03.788Z,26.13
2022-08-22T03:05:30.093Z,26.12
2022-08-22T03:08:02.759Z,26.10
2022-08-22T03:10:35.081Z,26.10
2022-08-22T03:13:01.515Z,26.09
2022-08-22T03:15:30.919Z,26.09
2022-08-22T03:18:06.887Z,26.10
2022-08-22T03:20:36.536Z,26.09
2022-08-22T03:23:07.328Z,26.09
2022-08-22T03:25:38.058Z,26.08
2022-08-22T03:28:07.408Z,26.09
2022-08-22T03:30:43.325Z,26.09
2022-08-22T03:33:12.820Z,26.10
2022-08-22T03:35:50.671Z,26.09
2022-08-22T03:38:17.025Z,26.09
2022-08-22T03:40:43.350Z,26.09
2022-08-22T03:43:28.812Z,26.11
2022-08-22T03:45:57.915Z,26.13
2022-08-22T03:48:43.136Z,26.09
2022-08-22T03:51:18.587Z,26.08
2022-08-22T03:53:51.197Z,26.09
2022-08-22T03:56:20.356Z,26.10
2022-08-22T03:59:02.910Z,26.08
2022-08-22T04:01:55.433Z,26.08
2022-08-22T04:04:40.490Z,26.08
2022-08-22T04:07:28.406Z,26.09
2022-08-22T04:10:11.274Z,26.09
2022-08-22T04:12:43.811Z,26.09
2022-08-22T04:15:25.407Z,26.10
2022-08-22T04:18:02.250Z,26.10
2022-08-22T04:20:55.152Z,26.09
2022-08-22T04:23:34.015Z,26.10
2022-08-22T04:26:20.963Z,26.09
2022-08-22T04:28:53.576Z,26.09
2022-08-22T04:31:46.409Z,26.07
2022-08-22T04:34:29.650Z,26.10
2022-08-22T04:37:09.899Z,26.09
2022-08-22T04:39:48.149Z,26.08
2022-08-22T04:42:36.696Z,26.07
2022-08-22T04:45:16.934Z,26.06
2022-08-22T04:47:47.210Z,26.08
2022-08-22T04:50:43.011Z,26.10
2022-08-22T04:53:14.926Z,26.08
2022-08-22T04:56:07.257Z,26.04
2022-08-22T04:58:41.575Z,26.03
2022-08-22T05:01:17.208Z,26.02
2022-08-22T05:03:53.676Z,26.02
2022-08-22T05:06:21.502Z,26.02
2022-08-22T05:08:53.632Z,26.03
2022-08-22T05:11:22.568Z,26.03
2022-08-22T05:13:53.491Z,26.05
2022-08-22T05:16:32.569Z,26.05
2022-08-22T05:19:02.683Z,26.04
2022-08-22T05:21:32.273Z,26.04
2022-08-22T05:24:01.447Z,26.04
2022-08-22T05:26:28.796Z,26.04
2022-08-22T05:28:59.619Z,26.05
2022-08-22T05:31:32.257Z,26.04
2022-08-22T05:34:05.925Z,26.05
2022-08-22T05:36:35.477Z,26.05
2022-08-22T05:39:04.938Z,26.05
2022-08-22T05:41:35.199Z,26.03
2022-08-22T05:44:02.466Z,26.03
2022-08-22T05:46:34.821Z,26.00
2022-08-22T05:49:03.158Z,26.00
2022-08-22T05:51:35.815Z,25.99
2022-08-22T05:54:19.715Z,26.01
2022-08-22T05:56:50.508Z,26.01
2022-08-22T05:59:34.454Z,26.08
2022-08-22T06:02:03.789Z,26.09
2022-08-22T06:04:51.888Z,26.06
2022-08-22T06:07:22.237Z,26.05
2022-08-22T06:09:48.566Z,26.10
2022-08-22T06:12:22.089Z,26.12
2022-08-22T06:14:55.019Z,26.13
2022-08-22T06:17:26.669Z,26.13
2022-08-22T06:19:54.330Z,26.16
2022-08-22T06:22:23.150Z,26.18
2022-08-22T06:24:50.812Z,26.18
2022-08-22T06:27:19.686Z,26.15
2022-08-22T06:29:49.226Z,26.13
2022-08-22T06:32:16.841Z,26.12
2022-08-22T06:35:06.606Z,26.13
2022-08-22T06:37:36.677Z,26.11
2022-08-22T06:40:05.257Z,26.10
2022-08-22T06:42:32.689Z,26.13
2022-08-22T06:45:22.068Z,26.14
2022-08-22T06:48:00.545Z,26.14
2022-08-22T06:50:32.285Z,26.15
2022-08-22T06:52:58.647Z,26.16
2022-08-22T06:55:26.496Z,26.15
2022-08-22T06:58:03.107Z,26.17
2022-08-22T07:00:30.649Z,26.20
2022-08-22T07:03:06.344Z,26.21
2022-08-22T07:05:37.895Z,26.22
2022-08-22T07:08:06.198Z,26.17
2022-08-22T07:10:32.587Z,26.16
2022-08-22T07:12:58.969Z,26.18
2022-08-22T07:15:35.335Z,26.18
2022-08-22T07:18:10.401Z,26.17
2022-08-22T07:20:41.821Z,26.17
2022-08-22T07:23:23.689Z,26.18
2022-08-22T07:25:58.336Z,26.22
2022-08-22T07:28:50.873Z,26.24
2022-08-22T07:31:30.950Z,26.25
2022-08-22T07:34:08.738Z,26.26
2022-08-22T07:36:57.920Z,26.26
2022-08-22T07:39:37.031Z,26.26
2022-08-22T07:42:11.198Z,26.27
2022-08-22T07:44:47.558Z,26.26
2022-08-22T07:47:18.103Z,26.26
2022-08-22T07:49:54.942Z,26.25
2022-08-22T07:52:22.114Z,26.27
2022-08-22T07:54:57.978Z,26.27
2022-08-22T07:57:32.561Z,26.28
2022-08-22T07:59:59.994Z,26.26
2022-08-22T08:02:26.760Z,26.27
2022-08-22T08:04:55.070Z,26.28
2022-08-22T08:07:23.586Z,26.28
2022-08-22T08:09:52.991Z,26.29
2022-08-22T08:12:21.931Z,26.28
2022-08-22T08:14:52.157Z,26.29
2022-08-22T08:17:22.641Z,26.28
2022-08-22T08:19:50.682Z,26.26
2022-08-22T08:22:19.802Z,26.28
2022-08-22T08:24:47.126Z,26.30
2022-08-22T08:27:34.152Z,26.29
2022-08-22T08:30:19.060Z,26.28
2022-08-22T08:32:57.530Z,26.28
2022-08-22T08:36:02.923Z,26.28
2022-08-22T08:38:32.742Z,26.29
2022-08-22T08:41:29.643Z,26.29
2022-08-22T08:43:55.988Z,26.30
2022-08-22T08:46:41.399Z,26.31
2022-08-22T08:49:21.006Z,26.31
2022-08-22T08:51:53.502Z,26.31
2022-08-22T08:54:23.731Z,26.31
2022-08-22T08:57:11.751Z,26.31
2022-08-22T08:59:49.318Z,26.32
2022-08-22T09:02:23.499Z,26.32
2022-08-22T09:05:08.876Z,26.33
2022-08-22T09:07:36.131Z,26.32
2022-08-22T09:10:16.529Z,26.32
2022-08-22T09:12:56.049Z,26.30
2022-08-22T09:15:39.461Z,26.31
2022-08-22T09:18:12.129Z,26.33
2022-08-22T09:20:47.564Z,26.33
2022-08-22T09:23:24.188Z,26.34
2022-08-22T09:25:55.813Z,26.35
2022-08-22T09:28:39.012Z,26.34
2022-08-22T09:31:16.619Z,26.34
2022-08-22T09:33:54.962Z,26.36
2022-08-22T09:36:30.003Z,26.35
2022-08-22T09:39:03.056Z,26.36
2022-08-22T09:41:52.925Z,26.36
2022-08-22T09:44:24.398Z,26.35
2022-08-22T09:46:58.075Z,26.36
2022-08-22T09:49:34.791Z,26.35
2022-08-22T09:52:15.432Z,26.36
2022-08-22T09:55:08.150Z,26.36
2022-08-22T09:57:47.844Z,26.36
2022-08-22T10:00:16.232Z,26.37
2022-08-22T10:02:51.612Z,26.36
2022-08-22T10:05:43.871Z,26.37
2022-08-22T10:08:20.034Z,26.37
2022-08-22T10:11:06.465Z,26.36
2022-08-22T10:13:37.238Z,26.36
2022-08-22T10:16:13.059Z,26.37
2022-08-22T10:18:43.970Z,26.37
2022-08-22T10:21:39.697Z,26.37
2022-08-22T10:24:07.265Z,26.39
2022-08-22T10:26:39.245Z,26.38
2022-08-22T10:29:16.268Z,26.40
2022-08-22T10:31:58.865Z,26.38
2022-08-22T10:34:29.048Z,26.38
2022-08-22T10:37:07.798Z,26.39
2022-08-22T10:39:47.448Z,26.40
2022-08-22T10:42:28.470Z,26.41
2022-08-22T10:44:59.548Z,26.42
2022-08-22T10:47:33.914Z,26.40
2022-08-22T10:50:10.821Z,26.40
2022-08-22T10:53:29.539Z,26.42
2022-08-22T10:56:05.458Z,26.42
2022-08-22T10:58:34.620Z,26.43
2022-08-22T11:01:37.001Z,26.43
2022-08-22T11:04:02.599Z,26.41
2022-08-22T11:06:50.408Z,26.43
2022-08-22T11:09:35.774Z,26.44
2022-08-22T11:12:21.291Z,26.45
2022-08-22T11:14:50.595Z,26.44
2022-08-22T11:17:40.661Z,26.44
2022-08-22T11:20:31.872Z,26.44
2022-08-22T11:23:14.184Z,26.41
2022-08-22T11:25:41.361Z,26.43
2022-08-22T11:28:21.084Z,26.44
2022-08-22T11:30:57.843Z,26.45
2022-08-22T11:33:32.451Z,26.45
2022-08-22T11:36:26.128Z,26.44
2022-08-22T11:39:18.655Z,26.42
2022-08-22T11:41:53.205Z,26.45
2022-08-22T11:44:27.300Z,26.46
2022-08-22T11:46:57.244Z,26.45
2022-08-22T11:49:32.923Z,26.45
2022-08-22T11:52:09.986Z,26.46
2022-08-22T11:54:42.079Z,26.44
2022-08-22T11:57:13.603Z,26.46
2022-08-22T11:59:43.357Z,26.48
2022-08-22T12:02:14.835Z,26.48
2022-08-22T12:04:45.772Z,26.44
2022-08-22T12:07:32.235Z,26.45
2022-08-22T12:10:00.963Z,26.48
2022-08-22T12:12:36.569Z,26.49
2022-08-22T12:15:11.945Z,26.50
2022-08-22T12:17:55.267Z,26.51
2022-08-22T12:20:45.332Z,26.52
2022-08-22T12:23:48.789Z,26.52
2022-08-22T12:26:34.824Z,26.50
2022-08-22T12:29:15.572Z,26.51
2022-08-22T12:31:58.369Z,26.53
2022-08-22T12:34:34.813Z,26.52
2022-08-22T12:37:11.923Z,26.52
2022-08-22T12:39:46.585Z,26.52
2022-08-22T12:42:42.963Z,26.53
2022-08-22T12:45:12.511Z,26.54
2022-08-22T12:47:42.242Z,26.53
2022-08-22T12:50:28.492Z,26.53
2022-08-22T12:53:15.926Z,26.53
2022-08-22T12:55:59.771Z,26.53
2022-08-22T12:58:34.579Z,26.53
2022-08-22T13:01:05.466Z,26.51
2022-08-22T13:03:35.349Z,26.52
2022-08-22T13:06:24.799Z,26.53
2022-08-22T13:08:52.184Z,26.55
2022-08-22T13:11:23.255Z,26.55
2022-08-22T13:13:56.622Z,26.54
2022-08-22T13:16:24.898Z,26.54
2022-08-22T13:18:56.861Z,26.54
2022-08-22T13:21:28.861Z,26.53
2022-08-22T13:24:10.357Z,26.55
2022-08-22T13:26:45.138Z,26.52
2022-08-22T13:29:25.800Z,26.53
2022-08-22T13:32:01.588Z,26.53
2022-08-22T13:34:39.598Z,26.54
2022-08-22T13:37:07.883Z,26.51
2022-08-22T13:39:38.690Z,26.54
2022-08-22T13:42:07.614Z,26.54
2022-08-22T13:44:46.482Z,26.53
2022-08-22T13:47:18.261Z,26.53
2022-08-22T13:49:52.954Z,26.53
2022-08-22T13:52:38.023Z,26.54
2022-08-22T13:55:18.923Z,26.56
2022-08-22T13:57:54.515Z,26.56
2022-08-22T14:00:29.938Z,26.58
2022-08-22T14:03:05.401Z,26.58
2022-08-22T14:05:38.241Z,26.58
2022-08-22T14:08:12.559Z,26.59
2022-08-22T14:10:45.359Z,26.58
2022-08-22T14:13:11.879Z,26.56
2022-08-22T14:15:45.749Z,26.55
2022-08-22T14:18:30.526Z,26.58
2022-08-22T14:21:16.661Z,26.59
2022-08-22T14:23:43.618Z,26.58
2022-08-22T14:26:10.102Z,26.58
2022-08-22T14:28:39.298Z,26.61
2022-08-22T14:31:13.299Z,26.59
2022-08-22T14:33:46.781Z,26.55
2022-08-22T14:36:22.644Z,26.56
2022-08-22T14:38:56.293Z,26.61
2022-08-22T14:41:22.636Z,26.61
2022-08-22T14:43:58.846Z,26.61
2022-08-22T14:46:49.424Z,26.61
2022-08-22T14:49:18.787Z,26.62
2022-08-22T14:51:50.787Z,26.62
2022-08-22T14:54:21.294Z,26.61
2022-08-22T14:56:49.163Z,26.62
2022-08-22T14:59:24.531Z,26.63
2022-08-22T15:01:53.654Z,26.65
2022-08-22T15:04:23.941Z,26.66
2022-08-22T15:06:57.847Z,26.64
2022-08-22T15:09:32.729Z,26.67
2022-08-22T15:12:01.776Z,26.68
2022-08-22T15:14:35.722Z,26.69
2022-08-22T15:17:04.680Z,26.71
2022-08-22T15:19:35.350Z,26.72
2022-08-22T15:22:19.114Z,26.72
2022-08-22T15:25:02.318Z,26.73
2022-08-22T15:27:29.783Z,26.75
2022-08-22T15:29:58.686Z,26.74
2022-08-22T15:32:27.401Z,26.76
2022-08-22T15:35:04.377Z,26.76
2022-08-22T15:37:32.782Z,26.76
2022-08-22T15:40:12.116Z,26.76
2022-08-22T15:42:43.993Z,26.76
2022-08-22T15:45:39.494Z,26.74
2022-08-22T15:48:13.349Z,26.77
2022-08-22T15:50:54.439Z,26.78
2022-08-22T15:53:21.032Z,26.78
2022-08-22T15:56:05.114Z,26.79
2022-08-22T15:58:32.303Z,26.79
2022-08-22T16:01:05.860Z,26.78
2022-08-22T16:04:02.102Z,26.79
2022-08-22T16:06:43.947Z,26.79
2022-08-22T16:09:29.563Z,26.77
2022-08-22T16:11:57.223Z,26.77
2022-08-22T16:14:35.767Z,26.76
2022-08-22T16:17:02.238Z,26.76
2022-08-22T16:19:29.756Z,26.76
2022-08-22T16:21:56.115Z,26.78
2022-08-22T16:24:22.475Z,26.77
2022-08-22T16:26:49.256Z,26.77
2022-08-22T16:29:41.502Z,26.79
2022-08-22T16:32:11.287Z,26.82
2022-08-22T16:34:37.629Z,26.82
2022-08-22T16:37:17.934Z,26.82
2022-08-22T16:39:49.832Z,26.80
2022-08-22T16:42:16.221Z,26.81
2022-08-22T16:44:46.773Z,26.82
2022-08-22T16:47:21.655Z,26.82
2022-08-22T16:49:50.732Z,26.82
2022-08-22T16:52:23.304Z,26.84
2022-08-22T16:54:51.171Z,26.85
2022-08-22T16:57:20.281Z,26.85
2022-08-22T16:59:59.104Z,26.86
2022-08-22T17:02:33.184Z,26.87
2022-08-22T17:05:15.442Z,26.88
2022-08-22T17:08:03.138Z,26.89
2022-08-22T17:10:46.504Z,26.89
2022-08-22T17:13:12.822Z,26.89
2022-08-22T17:15:39.183Z,26.90
2022-08-22T17:18:14.327Z,26.92
2022-08-22T17:20:49.447Z,26.91
2022-08-22T17:23:41.677Z,26.92
2022-08-22T17:26:07.990Z,26.92
2022-08-22T17:28:54.223Z,26.93
2022-08-22T17:31:31.569Z,26.91
2022-08-22T17:34:16.269Z,26.91
2022-08-22T17:36:42.629Z,26.92
2022-08-22T17:39:20.548Z,26.92
2022-08-22T17:41:46.947Z,26.92
2022-08-22T17:44:22.079Z,26.93
2022-08-22T17:46:57.114Z,26.92
2022-08-22T17:49:41.553Z,26.93
2022-08-22T17:52:16.325Z,26.93
2022-08-22T17:54:49.648Z,26.91
2022-08-22T17:57:28.143Z,26.94
2022-08-22T17:59:54.621Z,26.93
2022-08-22T18:02:24.730Z,26.92
2022-08-22T18:05:03.534Z,26.93
2022-08-22T18:07:34.898Z,26.92
2022-08-22T18:10:19.879Z,26.91
2022-08-22T18:13:20.603Z,26.89
2022-08-22T18:16:13.115Z,26.89
2022-08-22T18:18:48.618Z,26.88
2022-08-22T18:21:37.376Z,26.89
2022-08-22T18:24:09.543Z,26.86
2022-08-22T18:26:45.942Z,26.87
2022-08-22T18:29:16.905Z,26.83
2022-08-22T18:31:53.428Z,26.83
2022-08-22T18:34:40.873Z,26.82
2022-08-22T18:37:15.355Z,26.79
2022-08-22T18:39:54.970Z,26.74
2022-08-22T18:42:36.833Z,26.74
2022-08-22T18:45:03.487Z,26.76
2022-08-22T18:47:32.694Z,26.76
2022-08-22T18:50:00.970Z,26.73
2022-08-22T18:52:27.320Z,26.72
2022-08-22T18:55:12.599Z,26.74
2022-08-22T18:58:00.477Z,26.77
2022-08-22T19:00:46.247Z,26.76
2022-08-22T19:03:25.163Z,26.76
2022-08-22T19:06:10.576Z,26.75
2022-08-22T19:08:51.661Z,26.74
2022-08-22T19:11:35.153Z,26.75
2022-08-22T19:14:06.339Z,26.75
2022-08-22T19:16:45.433Z,26.76
2022-08-22T19:19:17.656Z,26.76
2022-08-22T19:22:19.646Z,26.78
2022-08-22T19:25:01.335Z,26.77
2022-08-22T19:27:31.324Z,26.74
2022-08-22T19:29:59.755Z,26.73
2022-08-22T19:32:44.427Z,26.74
2022-08-22T19:35:19.651Z,26.73
2022-08-22T19:37:54.760Z,26.70
2022-08-22T19:40:40.542Z,26.70
2022-08-22T19:43:22.320Z,26.70
2022-08-22T19:45:49.420Z,26.69
2022-08-22T19:48:15.854Z,26.69
2022-08-22T19:50:43.009Z,26.69
2022-08-22T19:53:09.758Z,26.71
2022-08-22T19:55:36.667Z,26.72
2022-08-22T19:58:12.950Z,26.72
2022-08-22T20:00:58.125Z,26.71
2022-08-22T20:03:43.628Z,26.71
2022-08-22T20:06:33.650Z,26.70
2022-08-22T20:09:04.049Z,26.71
2022-08-22T20:11:39.370Z,26.71
2022-08-22T20:14:12.071Z,26.73
2022-08-22T20:16:58.109Z,26.72
2022-08-22T20:19:36.235Z,26.73
2022-08-22T20:22:03.821Z,26.73
2022-08-22T20:24:41.070Z,26.73
2022-08-22T20:27:15.131Z,26.73
2022-08-22T20:29:45.063Z,26.73
2022-08-22T20:32:14.648Z,26.72
2022-08-22T20:34:42.523Z,26.73
2022-08-22T20:37:29.479Z,26.74
2022-08-22T20:40:09.880Z,26.73
2022-08-22T20:43:00.000Z,26.76
2022-08-22T20:45:28.002Z,26.76
2022-08-22T20:47:57.308Z,26.75
2022-08-22T20:50:24.463Z,26.73
2022-08-22T20:53:07.599Z,26.75
2022-08-22T20:55:35.994Z,26.76
2022-08-22T20:58:04.807Z,26.76
2022-08-22T21:00:39.406Z,26.75
2022-08-22T21:03:15.146Z,26.75
2022-08-22T21:05:43.214Z,26.74
2022-08-22T21:08:15.678Z,26.70
2022-08-22T21:11:00.803Z,26.71
2022-08-22T21:13:28.654Z,26.65
2022-08-22T21:16:02.579Z,26.67
2022-08-22T21:18:32.130Z,26.69
2022-08-22T21:21:08.118Z,26.65
2022-08-22T21:23:44.820Z,26.66
2022-08-22T21:26:22.268Z,26.63
2022-08-22T21:28:54.883Z,26.61
2022-08-22T21:31:23.440Z,26.62
2022-08-22T21:33:51.575Z,26.61
2022-08-22T21:36:20.107Z,26.63
2022-08-22T21:38:48.759Z,26.63
2022-08-22T21:41:23.116Z,26.62
2022-08-22T21:43:53.946Z,26.61
2022-08-22T21:46:25.066Z,26.61
2022-08-22T21:48:59.649Z,26.57
2022-08-22T21:51:31.980Z,26.55
2022-08-22T21:54:19.095Z,26.61
2022-08-22T21:56:45.662Z,26.63
2022-08-22T21:59:19.688Z,26.59
2022-08-22T22:01:51.517Z,26.54
2022-08-22T22:04:17.987Z,26.53
2022-08-22T22:06:44.546Z,26.53
2022-08-22T22:09:15.061Z,26.51
2022-08-22T22:11:41.781Z,26.52
2022-08-22T22:14:08.623Z,26.49
2022-08-22T22:16:35.137Z,26.51
2022-08-22T22:19:01.500Z,26.50
2022-08-22T22:21:28.150Z,26.51
2022-08-22T22:23:54.639Z,26.50
2022-08-22T22:26:25.462Z,26.50
2022-08-22T22:28:51.974Z,26.50
2022-08-22T22:31:18.439Z,26.49
2022-08-22T22:33:45.351Z,26.48
2022-08-22T22:36:37.900Z,26.47
2022-08-22T22:39:05.294Z,26.46
2022-08-22T22:41:31.719Z,26.44
2022-08-22T22:43:58.188Z,26.46
2022-08-22T22:46:26.735Z,26.46
2022-08-22T22:48:53.812Z,26.47
2022-08-22T22:51:20.197Z,26.46
2022-08-22T22:53:46.588Z,26.46
2022-08-22T22:56:16.639Z,26.45
2022-08-22T22:58:43.566Z,26.47
2022-08-22T23:01:17.301Z,26.48
2022-08-22T23:03:44.870Z,26.49
2022-08-22T23:06:15.975Z,26.49
2022-08-22T23:08:42.542Z,26.48
2022-08-22T23:11:15.830Z,26.48
2022-08-22T23:13:43.055Z,26.46
2022-08-22T23:16:11.976Z,26.45
2022-08-22T23:18:38.361Z,26.46
2022-08-22T23:21:10.640Z,26.46
2022-08-22T23:23:37.035Z,26.46
2022-08-22T23:26:03.436Z,26.48
2022-08-22T23:28:29.784Z,26.46
2022-08-22T23:30:56.130Z,26.45
2022-08-22T23:33:22.486Z,26.44
2022-08-22T23:35:48.925Z,26.44
2022-08-22T23:38:15.254Z,26.45
2022-08-22T23:40:46.495Z,26.45
2022-08-22T23:43:12.881Z,26.45
2022-08-22T23:45:39.222Z,26.44
2022-08-22T23:48:05.630Z,26.46
2022-08-22T23:50:33.811Z,26.47
2022-08-22T23:53:00.148Z,26.46
2022-08-22T23:55:26.540Z,26.45
2022-08-22T23:57:52.876Z,26.42
